sensor_id;sensor_type;location;lat;lon;timestamp;P1;durP1;ratioP1;P2;durP2;ratioP2
13706;SDS011;6925;47.816;13.072;2023-05-10T00:01:43;7.55;;;4.47;;
13706;SDS011;6925;47.816;13.072;2023-05-10T00:04:10;7.03;;;4.05;;
13706;SDS011;6925;47.816;13.072;2023-05-10T00:06:37;9.48;;;4.40;;
13706;SDS011;6925;47.816;13.072;2023-05-10T00:09:06;7.43;;;4.13;;
13706;SDS011;6925;47.816;13.072;2023-05-10T00:11:33;7.72;;;4.03;;
13706;SDS011;6925;47.816;13.072;2023-05-10T00:14:00;6.68;;;4.18;;
13706;SDS011;6925;47.816;13.072;2023-05-10T00:16:27;8.10;;;4.40;;
13706;SDS011;6925;47.816;13.072;2023-05-10T00:18:54;6.95;;;4.30;;
13706;SDS011;6925;47.816;13.072;2023-05-10T00:21:21;10.63;;;4.10;;
13706;SDS011;6925;47.816;13.072;2023-05-10T00:23:48;6.70;;;3.72;;
13706;SDS011;6925;47.816;13.072;2023-05-10T00:26:17;5.45;;;3.50;;
13706;SDS011;6925;47.816;13.072;2023-05-10T00:28:44;6.75;;;3.58;;
13706;SDS011;6925;47.816;13.072;2023-05-10T00:31:12;6.32;;;3.72;;
13706;SDS011;6925;47.816;13.072;2023-05-10T00:33:39;7.47;;;4.10;;
13706;SDS011;6925;47.816;13.072;2023-05-10T00:36:06;5.60;;;3.30;;
13706;SDS011;6925;47.816;13.072;2023-05-10T00:38:34;8.60;;;3.47;;
13706;SDS011;6925;47.816;13.072;2023-05-10T00:41:01;6.18;;;3.33;;
13706;SDS011;6925;47.816;13.072;2023-05-10T00:43:29;6.38;;;3.75;;
13706;SDS011;6925;47.816;13.072;2023-05-10T00:45:56;7.35;;;3.33;;
13706;SDS011;6925;47.816;13.072;2023-05-10T00:48:24;6.90;;;3.70;;
13706;SDS011;6925;47.816;13.072;2023-05-10T00:50:51;5.82;;;3.22;;
13706;SDS011;6925;47.816;13.072;2023-05-10T00:53:18;6.07;;;3.10;;
13706;SDS011;6925;47.816;13.072;2023-05-10T00:55:45;6.20;;;3.33;;
13706;SDS011;6925;47.816;13.072;2023-05-10T00:58:12;6.47;;;3.30;;
13706;SDS011;6925;47.816;13.072;2023-05-10T01:00:42;4.97;;;2.83;;
13706;SDS011;6925;47.816;13.072;2023-05-10T01:03:12;4.47;;;2.67;;
13706;SDS011;6925;47.816;13.072;2023-05-10T01:05:39;6.30;;;2.97;;
13706;SDS011;6925;47.816;13.072;2023-05-10T01:08:06;4.70;;;2.90;;
13706;SDS011;6925;47.816;13.072;2023-05-10T01:10:34;6.50;;;2.92;;
13706;SDS011;6925;47.816;13.072;2023-05-10T01:13:02;5.80;;;2.50;;
13706;SDS011;6925;47.816;13.072;2023-05-10T01:15:29;4.40;;;2.60;;
13706;SDS011;6925;47.816;13.072;2023-05-10T01:17:59;7.18;;;2.90;;
13706;SDS011;6925;47.816;13.072;2023-05-10T01:20:28;7.15;;;3.30;;
13706;SDS011;6925;47.816;13.072;2023-05-10T01:26:25;4.53;;;2.72;;
13706;SDS011;6925;47.816;13.072;2023-05-10T01:29:44;4.47;;;2.13;;
13706;SDS011;6925;47.816;13.072;2023-05-10T01:32:33;3.63;;;1.75;;
13706;SDS011;6925;47.816;13.072;2023-05-10T01:35:07;4.30;;;2.10;;
13706;SDS011;6925;47.816;13.072;2023-05-10T01:37:42;4.03;;;1.98;;
13706;SDS011;6925;47.816;13.072;2023-05-10T01:40:16;3.13;;;1.70;;
13706;SDS011;6925;47.816;13.072;2023-05-10T01:42:49;3.75;;;1.88;;
13706;SDS011;6925;47.816;13.072;2023-05-10T01:45:21;4.10;;;1.60;;
13706;SDS011;6925;47.816;13.072;2023-05-10T01:47:57;3.75;;;1.65;;
13706;SDS011;6925;47.816;13.072;2023-05-10T01:50:32;5.13;;;1.95;;
13706;SDS011;6925;47.816;13.072;2023-05-10T01:53:02;4.22;;;1.60;;
13706;SDS011;6925;47.816;13.072;2023-05-10T01:55:32;4.97;;;1.48;;
13706;SDS011;6925;47.816;13.072;2023-05-10T01:58:03;4.25;;;1.25;;
13706;SDS011;6925;47.816;13.072;2023-05-10T02:00:33;4.00;;;1.30;;
13706;SDS011;6925;47.816;13.072;2023-05-10T02:03:04;5.03;;;1.42;;
13706;SDS011;6925;47.816;13.072;2023-05-10T02:05:33;3.17;;;1.20;;
13706;SDS011;6925;47.816;13.072;2023-05-10T02:08:03;2.78;;;1.00;;
13706;SDS011;6925;47.816;13.072;2023-05-10T02:10:33;4.22;;;1.10;;
13706;SDS011;6925;47.816;13.072;2023-05-10T02:13:02;10.98;;;1.63;;
13706;SDS011;6925;47.816;13.072;2023-05-10T02:15:31;2.80;;;1.00;;
13706;SDS011;6925;47.816;13.072;2023-05-10T02:17:59;3.33;;;1.08;;
13706;SDS011;6925;47.816;13.072;2023-05-10T02:20:30;3.08;;;1.02;;
13706;SDS011;6925;47.816;13.072;2023-05-10T02:22:58;5.32;;;0.98;;
13706;SDS011;6925;47.816;13.072;2023-05-10T02:25:27;4.70;;;1.00;;
13706;SDS011;6925;47.816;13.072;2023-05-10T02:27:55;3.67;;;0.90;;
13706;SDS011;6925;47.816;13.072;2023-05-10T02:30:24;4.65;;;1.10;;
13706;SDS011;6925;47.816;13.072;2023-05-10T02:32:52;4.28;;;0.90;;
13706;SDS011;6925;47.816;13.072;2023-05-10T02:35:19;2.67;;;0.98;;
13706;SDS011;6925;47.816;13.072;2023-05-10T02:37:49;3.72;;;0.77;;
13706;SDS011;6925;47.816;13.072;2023-05-10T02:40:17;2.10;;;0.85;;
13706;SDS011;6925;47.816;13.072;2023-05-10T02:42:46;2.58;;;0.85;;
13706;SDS011;6925;47.816;13.072;2023-05-10T02:45:15;2.70;;;0.75;;
13706;SDS011;6925;47.816;13.072;2023-05-10T02:47:45;2.50;;;0.55;;
13706;SDS011;6925;47.816;13.072;2023-05-10T02:50:13;2.65;;;0.63;;
13706;SDS011;6925;47.816;13.072;2023-05-10T02:52:42;1.80;;;0.50;;
13706;SDS011;6925;47.816;13.072;2023-05-10T02:55:14;1.30;;;0.50;;
13706;SDS011;6925;47.816;13.072;2023-05-10T02:57:52;1.73;;;0.50;;
13706;SDS011;6925;47.816;13.072;2023-05-10T03:00:24;0.82;;;0.40;;
13706;SDS011;6925;47.816;13.072;2023-05-10T03:02:51;1.33;;;0.40;;
13706;SDS011;6925;47.816;13.072;2023-05-10T03:05:18;3.05;;;0.60;;
13706;SDS011;6925;47.816;13.072;2023-05-10T03:10:14;0.52;;;0.30;;
13706;SDS011;6925;47.816;13.072;2023-05-10T03:12:47;1.08;;;0.40;;
13706;SDS011;6925;47.816;13.072;2023-05-10T03:15:31;0.45;;;0.38;;
13706;SDS011;6925;47.816;13.072;2023-05-10T03:18:09;1.45;;;0.80;;
13706;SDS011;6925;47.816;13.072;2023-05-10T03:20:42;4.70;;;0.65;;
13706;SDS011;6925;47.816;13.072;2023-05-10T03:23:12;2.15;;;0.60;;
13706;SDS011;6925;47.816;13.072;2023-05-10T03:25:48;1.20;;;0.45;;
13706;SDS011;6925;47.816;13.072;2023-05-10T03:28:17;2.45;;;0.60;;
13706;SDS011;6925;47.816;13.072;2023-05-10T03:30:44;1.23;;;0.50;;
13706;SDS011;6925;47.816;13.072;2023-05-10T03:33:13;3.67;;;0.80;;
13706;SDS011;6925;47.816;13.072;2023-05-10T03:35:40;1.60;;;0.68;;
13706;SDS011;6925;47.816;13.072;2023-05-10T03:38:09;3.60;;;0.70;;
13706;SDS011;6925;47.816;13.072;2023-05-10T03:40:36;1.27;;;0.55;;
13706;SDS011;6925;47.816;13.072;2023-05-10T03:43:04;3.75;;;0.65;;
13706;SDS011;6925;47.816;13.072;2023-05-10T03:45:31;2.13;;;0.57;;
13706;SDS011;6925;47.816;13.072;2023-05-10T03:47:58;1.20;;;0.57;;
13706;SDS011;6925;47.816;13.072;2023-05-10T03:50:25;1.02;;;0.60;;
13706;SDS011;6925;47.816;13.072;2023-05-10T03:55:19;1.38;;;0.63;;
13706;SDS011;6925;47.816;13.072;2023-05-10T03:57:47;1.85;;;0.52;;
13706;SDS011;6925;47.816;13.072;2023-05-10T04:02:43;2.50;;;0.90;;
13706;SDS011;6925;47.816;13.072;2023-05-10T04:05:10;1.20;;;0.73;;
13706;SDS011;6925;47.816;13.072;2023-05-10T04:07:37;0.80;;;0.43;;
13706;SDS011;6925;47.816;13.072;2023-05-10T04:10:05;1.45;;;0.50;;
13706;SDS011;6925;47.816;13.072;2023-05-10T04:12:33;2.58;;;0.60;;
13706;SDS011;6925;47.816;13.072;2023-05-10T04:15:00;2.58;;;0.63;;
13706;SDS011;6925;47.816;13.072;2023-05-10T04:17:28;1.77;;;0.80;;
13706;SDS011;6925;47.816;13.072;2023-05-10T04:19:56;1.60;;;0.73;;
13706;SDS011;6925;47.816;13.072;2023-05-10T04:22:23;2.88;;;0.90;;
13706;SDS011;6925;47.816;13.072;2023-05-10T04:24:50;1.38;;;0.68;;
13706;SDS011;6925;47.816;13.072;2023-05-10T04:27:17;1.98;;;0.77;;
13706;SDS011;6925;47.816;13.072;2023-05-10T04:29:44;1.80;;;0.80;;
13706;SDS011;6925;47.816;13.072;2023-05-10T04:32:11;2.30;;;0.90;;
13706;SDS011;6925;47.816;13.072;2023-05-10T04:34:42;3.45;;;1.17;;
13706;SDS011;6925;47.816;13.072;2023-05-10T04:37:10;2.30;;;1.00;;
13706;SDS011;6925;47.816;13.072;2023-05-10T04:39:37;3.92;;;1.35;;
13706;SDS011;6925;47.816;13.072;2023-05-10T04:42:04;2.50;;;1.30;;
13706;SDS011;6925;47.816;13.072;2023-05-10T04:44:32;3.45;;;1.48;;
13706;SDS011;6925;47.816;13.072;2023-05-10T04:46:59;4.10;;;1.33;;
13706;SDS011;6925;47.816;13.072;2023-05-10T04:49:27;3.97;;;1.50;;
13706;SDS011;6925;47.816;13.072;2023-05-10T04:51:56;2.58;;;1.27;;
13706;SDS011;6925;47.816;13.072;2023-05-10T04:54:23;2.78;;;1.50;;
13706;SDS011;6925;47.816;13.072;2023-05-10T04:56:50;4.15;;;1.83;;
13706;SDS011;6925;47.816;13.072;2023-05-10T04:59:18;2.45;;;1.15;;
13706;SDS011;6925;47.816;13.072;2023-05-10T05:01:45;4.32;;;1.50;;
13706;SDS011;6925;47.816;13.072;2023-05-10T05:04:12;2.63;;;1.40;;
13706;SDS011;6925;47.816;13.072;2023-05-10T05:09:08;3.30;;;1.15;;
13706;SDS011;6925;47.816;13.072;2023-05-10T05:11:35;2.45;;;1.10;;
13706;SDS011;6925;47.816;13.072;2023-05-10T05:14:02;4.43;;;1.30;;
13706;SDS011;6925;47.816;13.072;2023-05-10T05:16:30;2.75;;;1.40;;
13706;SDS011;6925;47.816;13.072;2023-05-10T05:18:57;3.30;;;0.95;;
13706;SDS011;6925;47.816;13.072;2023-05-10T05:21:24;3.75;;;1.63;;
13706;SDS011;6925;47.816;13.072;2023-05-10T05:23:52;3.03;;;1.63;;
13706;SDS011;6925;47.816;13.072;2023-05-10T05:26:20;3.70;;;1.38;;
13706;SDS011;6925;47.816;13.072;2023-05-10T05:28:48;3.53;;;1.70;;
13706;SDS011;6925;47.816;13.072;2023-05-10T05:31:17;2.13;;;1.00;;
13706;SDS011;6925;47.816;13.072;2023-05-10T05:33:45;2.97;;;1.40;;
13706;SDS011;6925;47.816;13.072;2023-05-10T05:36:12;3.53;;;1.70;;
13706;SDS011;6925;47.816;13.072;2023-05-10T05:41:06;3.90;;;1.95;;
13706;SDS011;6925;47.816;13.072;2023-05-10T05:43:34;6.70;;;2.42;;
13706;SDS011;6925;47.816;13.072;2023-05-10T05:46:01;4.57;;;1.90;;
13706;SDS011;6925;47.816;13.072;2023-05-10T05:48:29;4.30;;;2.55;;
13706;SDS011;6925;47.816;13.072;2023-05-10T05:50:56;4.88;;;2.17;;
13706;SDS011;6925;47.816;13.072;2023-05-10T05:53:24;5.28;;;2.22;;
13706;SDS011;6925;47.816;13.072;2023-05-10T05:55:51;4.63;;;2.25;;
13706;SDS011;6925;47.816;13.072;2023-05-10T05:58:20;5.93;;;2.72;;
13706;SDS011;6925;47.816;13.072;2023-05-10T06:00:49;4.57;;;2.35;;
13706;SDS011;6925;47.816;13.072;2023-05-10T06:03:16;5.32;;;2.67;;
13706;SDS011;6925;47.816;13.072;2023-05-10T06:05:44;5.35;;;2.05;;
13706;SDS011;6925;47.816;13.072;2023-05-10T06:08:11;4.43;;;2.50;;
13706;SDS011;6925;47.816;13.072;2023-05-10T06:10:38;3.65;;;2.00;;
13706;SDS011;6925;47.816;13.072;2023-05-10T06:13:05;5.97;;;2.42;;
13706;SDS011;6925;47.816;13.072;2023-05-10T06:15:32;4.40;;;2.50;;
13706;SDS011;6925;47.816;13.072;2023-05-10T06:18:01;6.13;;;2.50;;
13706;SDS011;6925;47.816;13.072;2023-05-10T06:20:28;3.72;;;2.25;;
13706;SDS011;6925;47.816;13.072;2023-05-10T06:22:56;4.55;;;2.40;;
13706;SDS011;6925;47.816;13.072;2023-05-10T06:25:23;5.28;;;2.60;;
13706;SDS011;6925;47.816;13.072;2023-05-10T06:27:51;5.05;;;2.42;;
13706;SDS011;6925;47.816;13.072;2023-05-10T06:30:22;6.28;;;3.03;;
13706;SDS011;6925;47.816;13.072;2023-05-10T06:32:52;4.65;;;2.92;;
13706;SDS011;6925;47.816;13.072;2023-05-10T06:35:21;8.88;;;3.25;;
13706;SDS011;6925;47.816;13.072;2023-05-10T06:37:48;6.57;;;3.33;;
13706;SDS011;6925;47.816;13.072;2023-05-10T06:40:15;6.75;;;3.72;;
13706;SDS011;6925;47.816;13.072;2023-05-10T06:42:43;6.40;;;3.75;;
13706;SDS011;6925;47.816;13.072;2023-05-10T06:45:11;6.20;;;3.63;;
13706;SDS011;6925;47.816;13.072;2023-05-10T06:47:39;6.18;;;3.13;;
13706;SDS011;6925;47.816;13.072;2023-05-10T06:50:07;7.45;;;3.75;;
13706;SDS011;6925;47.816;13.072;2023-05-10T06:52:35;5.63;;;3.20;;
13706;SDS011;6925;47.816;13.072;2023-05-10T06:55:03;5.15;;;3.38;;
13706;SDS011;6925;47.816;13.072;2023-05-10T06:57:31;5.18;;;3.58;;
13706;SDS011;6925;47.816;13.072;2023-05-10T06:59:59;6.93;;;3.90;;
13706;SDS011;6925;47.816;13.072;2023-05-10T07:04:53;6.35;;;3.13;;
13706;SDS011;6925;47.816;13.072;2023-05-10T07:07:20;5.70;;;3.63;;
13706;SDS011;6925;47.816;13.072;2023-05-10T07:09:49;5.35;;;3.33;;
13706;SDS011;6925;47.816;13.072;2023-05-10T07:12:16;5.47;;;3.40;;
13706;SDS011;6925;47.816;13.072;2023-05-10T07:17:10;4.75;;;2.80;;
13706;SDS011;6925;47.816;13.072;2023-05-10T07:19:37;4.97;;;3.05;;
13706;SDS011;6925;47.816;13.072;2023-05-10T07:22:04;5.40;;;3.00;;
13706;SDS011;6925;47.816;13.072;2023-05-10T07:24:32;5.10;;;3.00;;
13706;SDS011;6925;47.816;13.072;2023-05-10T07:27:00;5.82;;;3.13;;
13706;SDS011;6925;47.816;13.072;2023-05-10T07:29:27;5.68;;;3.25;;
13706;SDS011;6925;47.816;13.072;2023-05-10T07:31:55;5.47;;;3.13;;
13706;SDS011;6925;47.816;13.072;2023-05-10T07:34:22;12.30;;;3.70;;
13706;SDS011;6925;47.816;13.072;2023-05-10T07:36:49;6.55;;;3.03;;
13706;SDS011;6925;47.816;13.072;2023-05-10T07:39:16;8.73;;;3.30;;
13706;SDS011;6925;47.816;13.072;2023-05-10T07:41:43;7.03;;;3.42;;
13706;SDS011;6925;47.816;13.072;2023-05-10T07:44:12;5.93;;;2.95;;
13706;SDS011;6925;47.816;13.072;2023-05-10T07:46:39;6.85;;;3.30;;
13706;SDS011;6925;47.816;13.072;2023-05-10T07:49:06;5.00;;;3.00;;
13706;SDS011;6925;47.816;13.072;2023-05-10T07:51:33;8.18;;;3.47;;
13706;SDS011;6925;47.816;13.072;2023-05-10T07:54:00;7.40;;;3.15;;
13706;SDS011;6925;47.816;13.072;2023-05-10T07:56:28;6.18;;;3.42;;
13706;SDS011;6925;47.816;13.072;2023-05-10T07:58:56;5.20;;;3.13;;
13706;SDS011;6925;47.816;13.072;2023-05-10T08:01:25;6.65;;;3.22;;
13706;SDS011;6925;47.816;13.072;2023-05-10T08:03:53;5.43;;;3.25;;
13706;SDS011;6925;47.816;13.072;2023-05-10T08:06:20;7.13;;;3.17;;
13706;SDS011;6925;47.816;13.072;2023-05-10T08:08:47;6.43;;;2.92;;
13706;SDS011;6925;47.816;13.072;2023-05-10T08:11:15;7.97;;;3.72;;
13706;SDS011;6925;47.816;13.072;2023-05-10T08:16:10;5.75;;;3.40;;
13706;SDS011;6925;47.816;13.072;2023-05-10T08:18:38;5.20;;;3.58;;
13706;SDS011;6925;47.816;13.072;2023-05-10T08:21:06;5.93;;;3.60;;
13706;SDS011;6925;47.816;13.072;2023-05-10T08:26:00;6.82;;;3.55;;
13706;SDS011;6925;47.816;13.072;2023-05-10T08:28:27;5.22;;;3.25;;
13706;SDS011;6925;47.816;13.072;2023-05-10T08:30:54;9.43;;;4.65;;
13706;SDS011;6925;47.816;13.072;2023-05-10T08:33:21;6.68;;;3.10;;
13706;SDS011;6925;47.816;13.072;2023-05-10T08:38:17;5.68;;;2.75;;
13706;SDS011;6925;47.816;13.072;2023-05-10T08:40:45;8.15;;;3.38;;
13706;SDS011;6925;47.816;13.072;2023-05-10T08:43:16;6.47;;;3.30;;
13706;SDS011;6925;47.816;13.072;2023-05-10T08:48:11;8.30;;;3.60;;
13706;SDS011;6925;47.816;13.072;2023-05-10T08:50:40;4.93;;;2.38;;
13706;SDS011;6925;47.816;13.072;2023-05-10T08:53:10;5.43;;;3.17;;
13706;SDS011;6925;47.816;13.072;2023-05-10T08:55:39;7.40;;;3.03;;
13706;SDS011;6925;47.816;13.072;2023-05-10T08:58:08;5.70;;;2.17;;
13706;SDS011;6925;47.816;13.072;2023-05-10T09:00:36;4.90;;;2.13;;
13706;SDS011;6925;47.816;13.072;2023-05-10T09:03:03;4.85;;;2.17;;
13706;SDS011;6925;47.816;13.072;2023-05-10T09:05:32;4.82;;;2.08;;
13706;SDS011;6925;47.816;13.072;2023-05-10T09:07:59;5.80;;;2.67;;
13706;SDS011;6925;47.816;13.072;2023-05-10T09:10:28;4.63;;;2.40;;
13706;SDS011;6925;47.816;13.072;2023-05-10T09:12:57;4.30;;;1.90;;
13706;SDS011;6925;47.816;13.072;2023-05-10T09:17:51;5.55;;;1.42;;
13706;SDS011;6925;47.816;13.072;2023-05-10T09:20:18;2.50;;;1.20;;
13706;SDS011;6925;47.816;13.072;2023-05-10T09:22:45;3.95;;;1.70;;
13706;SDS011;6925;47.816;13.072;2023-05-10T09:27:43;3.13;;;1.20;;
13706;SDS011;6925;47.816;13.072;2023-05-10T09:30:15;1.88;;;0.70;;
13706;SDS011;6925;47.816;13.072;2023-05-10T09:32:43;2.08;;;0.90;;
13706;SDS011;6925;47.816;13.072;2023-05-10T09:35:12;2.05;;;0.88;;
13706;SDS011;6925;47.816;13.072;2023-05-10T09:37:40;2.55;;;1.10;;
13706;SDS011;6925;47.816;13.072;2023-05-10T09:40:11;2.00;;;0.95;;
13706;SDS011;6925;47.816;13.072;2023-05-10T09:42:42;2.90;;;1.17;;
13706;SDS011;6925;47.816;13.072;2023-05-10T09:45:18;3.50;;;1.52;;
13706;SDS011;6925;47.816;13.072;2023-05-10T09:50:12;3.22;;;1.30;;
13706;SDS011;6925;47.816;13.072;2023-05-10T09:52:46;3.13;;;1.33;;
13706;SDS011;6925;47.816;13.072;2023-05-10T09:55:15;3.25;;;1.10;;
13706;SDS011;6925;47.816;13.072;2023-05-10T09:57:45;3.85;;;1.60;;
13706;SDS011;6925;47.816;13.072;2023-05-10T10:00:16;4.45;;;1.77;;
13706;SDS011;6925;47.816;13.072;2023-05-10T10:02:45;3.95;;;1.30;;
13706;SDS011;6925;47.816;13.072;2023-05-10T10:05:13;2.90;;;0.98;;
13706;SDS011;6925;47.816;13.072;2023-05-10T10:07:41;2.78;;;1.25;;
13706;SDS011;6925;47.816;13.072;2023-05-10T10:10:09;5.40;;;1.92;;
13706;SDS011;6925;47.816;13.072;2023-05-10T10:12:40;5.35;;;1.70;;
13706;SDS011;6925;47.816;13.072;2023-05-10T10:15:09;3.08;;;1.20;;
13706;SDS011;6925;47.816;13.072;2023-05-10T10:17:37;3.50;;;1.45;;
13706;SDS011;6925;47.816;13.072;2023-05-10T10:20:05;3.38;;;1.45;;
13706;SDS011;6925;47.816;13.072;2023-05-10T10:22:33;3.83;;;1.35;;
13706;SDS011;6925;47.816;13.072;2023-05-10T10:27:41;3.22;;;1.30;;
13706;SDS011;6925;47.816;13.072;2023-05-10T10:30:19;3.15;;;1.17;;
13706;SDS011;6925;47.816;13.072;2023-05-10T10:35:54;3.65;;;1.50;;
13706;SDS011;6925;47.816;13.072;2023-05-10T10:38:24;3.28;;;1.20;;
13706;SDS011;6925;47.816;13.072;2023-05-10T10:41:01;3.92;;;1.40;;
13706;SDS011;6925;47.816;13.072;2023-05-10T10:43:29;3.05;;;1.45;;
13706;SDS011;6925;47.816;13.072;2023-05-10T10:48:43;2.78;;;1.13;;
13706;SDS011;6925;47.816;13.072;2023-05-10T10:51:14;2.53;;;1.20;;
13706;SDS011;6925;47.816;13.072;2023-05-10T10:53:41;1.95;;;0.95;;
13706;SDS011;6925;47.816;13.072;2023-05-10T10:56:10;3.30;;;1.00;;
13706;SDS011;6925;47.816;13.072;2023-05-10T10:58:39;2.35;;;1.00;;
13706;SDS011;6925;47.816;13.072;2023-05-10T11:01:14;1.60;;;0.75;;
13706;SDS011;6925;47.816;13.072;2023-05-10T11:03:54;2.13;;;0.85;;
13706;SDS011;6925;47.816;13.072;2023-05-10T11:06:36;2.28;;;0.90;;
13706;SDS011;6925;47.816;13.072;2023-05-10T11:09:05;3.72;;;1.00;;
13706;SDS011;6925;47.816;13.072;2023-05-10T11:11:34;2.25;;;0.98;;
13706;SDS011;6925;47.816;13.072;2023-05-10T11:14:02;3.00;;;1.10;;
13706;SDS011;6925;47.816;13.072;2023-05-10T11:16:41;3.15;;;1.05;;
13706;SDS011;6925;47.816;13.072;2023-05-10T11:19:10;1.75;;;1.00;;
13706;SDS011;6925;47.816;13.072;2023-05-10T11:21:44;3.10;;;1.05;;
13706;SDS011;6925;47.816;13.072;2023-05-10T11:24:13;2.75;;;0.90;;
13706;SDS011;6925;47.816;13.072;2023-05-10T11:26:41;2.50;;;1.05;;
13706;SDS011;6925;47.816;13.072;2023-05-10T11:29:09;3.38;;;1.65;;
13706;SDS011;6925;47.816;13.072;2023-05-10T11:34:10;3.17;;;1.67;;
13706;SDS011;6925;47.816;13.072;2023-05-10T11:36:40;2.63;;;1.30;;
13706;SDS011;6925;47.816;13.072;2023-05-10T11:39:07;3.13;;;1.45;;
13706;SDS011;6925;47.816;13.072;2023-05-10T11:41:36;3.08;;;1.45;;
13706;SDS011;6925;47.816;13.072;2023-05-10T11:44:04;2.60;;;1.17;;
13706;SDS011;6925;47.816;13.072;2023-05-10T11:46:31;2.70;;;1.33;;
13706;SDS011;6925;47.816;13.072;2023-05-10T11:49:00;2.83;;;1.33;;
13706;SDS011;6925;47.816;13.072;2023-05-10T11:51:29;2.78;;;1.35;;
13706;SDS011;6925;47.816;13.072;2023-05-10T11:53:59;3.55;;;1.20;;
13706;SDS011;6925;47.816;13.072;2023-05-10T11:56:26;2.97;;;1.30;;
13706;SDS011;6925;47.816;13.072;2023-05-10T11:58:53;2.47;;;1.33;;
13706;SDS011;6925;47.816;13.072;2023-05-10T12:01:22;3.45;;;1.50;;
13706;SDS011;6925;47.816;13.072;2023-05-10T12:03:50;6.32;;;1.70;;
13706;SDS011;6925;47.816;13.072;2023-05-10T12:06:20;2.78;;;1.17;;
13706;SDS011;6925;47.816;13.072;2023-05-10T12:08:47;1.73;;;0.90;;
13706;SDS011;6925;47.816;13.072;2023-05-10T12:11:17;2.58;;;0.98;;
13706;SDS011;6925;47.816;13.072;2023-05-10T12:13:46;3.60;;;1.10;;
13706;SDS011;6925;47.816;13.072;2023-05-10T12:16:15;3.03;;;1.30;;
13706;SDS011;6925;47.816;13.072;2023-05-10T12:18:43;4.70;;;1.67;;
13706;SDS011;6925;47.816;13.072;2023-05-10T12:21:10;3.00;;;1.27;;
13706;SDS011;6925;47.816;13.072;2023-05-10T12:23:39;2.75;;;1.20;;
13706;SDS011;6925;47.816;13.072;2023-05-10T12:26:08;2.95;;;1.30;;
13706;SDS011;6925;47.816;13.072;2023-05-10T12:28:36;2.80;;;1.30;;
13706;SDS011;6925;47.816;13.072;2023-05-10T12:31:05;2.47;;;1.10;;
13706;SDS011;6925;47.816;13.072;2023-05-10T12:33:36;1.70;;;1.00;;
13706;SDS011;6925;47.816;13.072;2023-05-10T12:36:06;3.17;;;1.50;;
13706;SDS011;6925;47.816;13.072;2023-05-10T12:38:35;3.20;;;1.40;;
13706;SDS011;6925;47.816;13.072;2023-05-10T12:41:05;2.25;;;1.10;;
13706;SDS011;6925;47.816;13.072;2023-05-10T12:43:33;2.58;;;1.48;;
13706;SDS011;6925;47.816;13.072;2023-05-10T12:46:04;3.53;;;1.10;;
13706;SDS011;6925;47.816;13.072;2023-05-10T12:48:33;2.72;;;1.00;;
13706;SDS011;6925;47.816;13.072;2023-05-10T12:51:00;1.77;;;0.93;;
13706;SDS011;6925;47.816;13.072;2023-05-10T12:53:28;1.88;;;0.73;;
13706;SDS011;6925;47.816;13.072;2023-05-10T12:55:56;1.95;;;0.85;;
13706;SDS011;6925;47.816;13.072;2023-05-10T12:58:24;2.20;;;0.98;;
13706;SDS011;6925;47.816;13.072;2023-05-10T13:00:52;1.65;;;0.82;;
13706;SDS011;6925;47.816;13.072;2023-05-10T13:03:19;3.10;;;0.90;;
13706;SDS011;6925;47.816;13.072;2023-05-10T13:08:13;2.20;;;0.88;;
13706;SDS011;6925;47.816;13.072;2023-05-10T13:13:07;2.30;;;1.23;;
13706;SDS011;6925;47.816;13.072;2023-05-10T13:15:36;1.80;;;0.90;;
13706;SDS011;6925;47.816;13.072;2023-05-10T13:18:03;2.53;;;0.70;;
13706;SDS011;6925;47.816;13.072;2023-05-10T13:22:57;1.27;;;0.70;;
13706;SDS011;6925;47.816;13.072;2023-05-10T13:25:24;1.98;;;0.80;;
13706;SDS011;6925;47.816;13.072;2023-05-10T13:30:18;2.42;;;0.90;;
13706;SDS011;6925;47.816;13.072;2023-05-10T13:32:47;1.98;;;0.90;;
13706;SDS011;6925;47.816;13.072;2023-05-10T13:35:14;2.67;;;0.90;;
13706;SDS011;6925;47.816;13.072;2023-05-10T13:37:41;1.30;;;0.60;;
13706;SDS011;6925;47.816;13.072;2023-05-10T13:40:08;3.60;;;0.80;;
13706;SDS011;6925;47.816;13.072;2023-05-10T13:42:36;2.88;;;1.05;;
13706;SDS011;6925;47.816;13.072;2023-05-10T13:45:03;3.70;;;0.85;;
13706;SDS011;6925;47.816;13.072;2023-05-10T13:47:32;2.15;;;0.95;;
13706;SDS011;6925;47.816;13.072;2023-05-10T13:50:00;3.17;;;0.80;;
13706;SDS011;6925;47.816;13.072;2023-05-10T13:52:28;2.55;;;0.88;;
13706;SDS011;6925;47.816;13.072;2023-05-10T13:54:55;4.53;;;0.90;;
13706;SDS011;6925;47.816;13.072;2023-05-10T13:57:22;2.25;;;0.90;;
13706;SDS011;6925;47.816;13.072;2023-05-10T13:59:50;3.08;;;0.98;;
13706;SDS011;6925;47.816;13.072;2023-05-10T14:02:17;3.35;;;1.00;;
13706;SDS011;6925;47.816;13.072;2023-05-10T14:04:45;2.30;;;0.80;;
13706;SDS011;6925;47.816;13.072;2023-05-10T14:07:13;1.73;;;0.82;;
13706;SDS011;6925;47.816;13.072;2023-05-10T14:09:40;4.80;;;1.02;;
13706;SDS011;6925;47.816;13.072;2023-05-10T14:12:07;3.80;;;1.00;;
13706;SDS011;6925;47.816;13.072;2023-05-10T14:14:34;3.20;;;1.02;;
13706;SDS011;6925;47.816;13.072;2023-05-10T14:17:01;3.33;;;0.90;;
13706;SDS011;6925;47.816;13.072;2023-05-10T14:19:29;3.25;;;0.75;;
13706;SDS011;6925;47.816;13.072;2023-05-10T14:21:57;5.57;;;0.77;;
13706;SDS011;6925;47.816;13.072;2023-05-10T14:24:26;4.65;;;0.60;;
13706;SDS011;6925;47.816;13.072;2023-05-10T14:26:53;5.80;;;0.80;;
13706;SDS011;6925;47.816;13.072;2023-05-10T14:29:20;6.15;;;0.73;;
13706;SDS011;6925;47.816;13.072;2023-05-10T14:31:48;1.48;;;0.50;;
13706;SDS011;6925;47.816;13.072;2023-05-10T14:34:16;1.85;;;0.63;;
13706;SDS011;6925;47.816;13.072;2023-05-10T14:36:44;2.35;;;0.52;;
13706;SDS011;6925;47.816;13.072;2023-05-10T14:39:15;1.60;;;0.50;;
13706;SDS011;6925;47.816;13.072;2023-05-10T14:41:45;3.70;;;0.60;;
13706;SDS011;6925;47.816;13.072;2023-05-10T14:44:17;1.92;;;0.60;;
13706;SDS011;6925;47.816;13.072;2023-05-10T14:46:45;1.38;;;0.60;;
13706;SDS011;6925;47.816;13.072;2023-05-10T14:49:15;1.50;;;0.63;;
13706;SDS011;6925;47.816;13.072;2023-05-10T14:51:43;1.88;;;0.47;;
13706;SDS011;6925;47.816;13.072;2023-05-10T14:54:14;1.58;;;0.60;;
13706;SDS011;6925;47.816;13.072;2023-05-10T14:56:45;3.15;;;0.68;;
13706;SDS011;6925;47.816;13.072;2023-05-10T14:59:14;1.35;;;0.52;;
13706;SDS011;6925;47.816;13.072;2023-05-10T15:04:09;0.98;;;0.30;;
13706;SDS011;6925;47.816;13.072;2023-05-10T15:06:38;1.40;;;0.60;;
13706;SDS011;6925;47.816;13.072;2023-05-10T15:09:06;4.00;;;0.70;;
13706;SDS011;6925;47.816;13.072;2023-05-10T15:11:34;2.22;;;0.70;;
13706;SDS011;6925;47.816;13.072;2023-05-10T15:16:29;1.95;;;0.43;;
13706;SDS011;6925;47.816;13.072;2023-05-10T15:18:56;0.80;;;0.55;;
13706;SDS011;6925;47.816;13.072;2023-05-10T15:21:23;1.98;;;0.70;;
13706;SDS011;6925;47.816;13.072;2023-05-10T15:23:50;0.80;;;0.50;;
13706;SDS011;6925;47.816;13.072;2023-05-10T15:26:17;1.58;;;0.75;;
13706;SDS011;6925;47.816;13.072;2023-05-10T15:28:45;2.03;;;0.63;;
13706;SDS011;6925;47.816;13.072;2023-05-10T15:31:13;3.17;;;0.70;;
13706;SDS011;6925;47.816;13.072;2023-05-10T15:33:40;0.75;;;0.45;;
13706;SDS011;6925;47.816;13.072;2023-05-10T15:36:07;0.98;;;0.50;;
13706;SDS011;6925;47.816;13.072;2023-05-10T15:38:35;2.70;;;0.70;;
13706;SDS011;6925;47.816;13.072;2023-05-10T15:41:02;3.05;;;0.70;;
13706;SDS011;6925;47.816;13.072;2023-05-10T15:43:29;1.90;;;0.90;;
13706;SDS011;6925;47.816;13.072;2023-05-10T15:45:56;2.10;;;0.68;;
13706;SDS011;6925;47.816;13.072;2023-05-10T15:48:25;1.65;;;0.80;;
13706;SDS011;6925;47.816;13.072;2023-05-10T15:50:52;1.92;;;0.90;;
13706;SDS011;6925;47.816;13.072;2023-05-10T15:53:19;3.83;;;0.93;;
13706;SDS011;6925;47.816;13.072;2023-05-10T15:55:47;2.80;;;0.80;;
13706;SDS011;6925;47.816;13.072;2023-05-10T16:00:40;3.35;;;0.90;;
13706;SDS011;6925;47.816;13.072;2023-05-10T16:05:36;2.40;;;0.90;;